createdAt,value
2022-11-05T00:02:31.864Z,11.20
2022-11-05T00:07:51.362Z,11.10
2022-11-05T00:13:07.371Z,11.10
2022-11-05T00:18:07.045Z,11.00
2022-11-05T00:23:23.886Z,11.10
2022-11-05T00:28:22.119Z,11.10
2022-11-05T00:33:21.658Z,11.10
2022-11-05T00:38:19.789Z,11.10
2022-11-05T00:43:35.542Z,11.00
2022-11-05T00:48:52.463Z,11.00
2022-11-05T00:53:51.014Z,10.90
2022-11-05T00:59:07.197Z,10.90
2022-11-05T01:04:06.841Z,10.90
2022-11-05T01:09:05.134Z,10.80
2022-11-05T01:14:05.177Z,10.80
2022-11-05T01:19:04.236Z,10.70
2022-11-05T01:24:04.559Z,10.70
2022-11-05T01:29:02.739Z,10.60
2022-11-05T01:34:02.087Z,10.60
2022-11-05T01:39:00.364Z,10.60
2022-11-05T01:44:00.749Z,10.50
2022-11-05T01:49:05.435Z,10.50
2022-11-05T01:54:07.739Z,10.50
2022-11-05T01:59:12.575Z,10.40
2022-11-05T02:04:14.587Z,10.40
2022-11-05T02:09:16.937Z,10.40
2022-11-05T02:14:16.452Z,10.40
2022-11-05T02:19:57.284Z,10.40
2022-11-05T02:25:14.442Z,10.40
2022-11-05T02:30:31.858Z,10.30
2022-11-05T02:35:55.065Z,10.30
2022-11-05T02:41:04.023Z,10.20
2022-11-05T02:46:14.956Z,10.20
2022-11-05T02:51:19.748Z,10.20
2022-11-05T02:56:22.083Z,10.20
2022-11-05T03:01:21.954Z,10.20
2022-11-05T03:07:01.114Z,10.10
2022-11-05T03:12:10.378Z,10.10
2022-11-05T03:17:16.872Z,10.10
2022-11-05T03:22:17.257Z,10.10
2022-11-05T03:27:20.475Z,10.10
2022-11-05T03:32:22.500Z,10.10
2022-11-05T03:37:23.672Z,10.00
2022-11-05T03:42:26.342Z,9.90
2022-11-05T03:47:28.329Z,9.90
2022-11-05T03:52:31.166Z,9.80
2022-11-05T03:57:32.742Z,10.00
2022-11-05T04:02:32.783Z,9.70
2022-11-05T04:07:48.568Z,9.70
2022-11-05T04:13:04.231Z,9.70
2022-11-05T04:18:03.718Z,10.00
2022-11-05T04:23:20.998Z,9.70
2022-11-05T04:28:19.156Z,9.60
2022-11-05T04:33:18.633Z,9.80
2022-11-05T04:38:17.988Z,9.60
2022-11-05T04:43:18.666Z,9.60
2022-11-05T04:48:18.456Z,9.60
2022-11-05T04:53:16.592Z,9.60
2022-11-05T04:58:14.717Z,9.50
2022-11-05T05:03:13.214Z,9.50
2022-11-05T05:08:13.010Z,9.40
2022-11-05T05:13:12.847Z,9.40
2022-11-05T05:18:11.278Z,9.60
2022-11-05T05:23:09.645Z,9.30
2022-11-05T05:28:09.328Z,9.30
2022-11-05T05:33:07.495Z,9.30
2022-11-05T05:38:05.622Z,9.20
2022-11-05T05:43:03.792Z,9.20
2022-11-05T05:48:03.885Z,9.20
2022-11-05T05:53:02.086Z,9.10
2022-11-05T05:58:00.278Z,9.10
2022-11-05T06:02:58.559Z,9.10
2022-11-05T06:07:58.873Z,9.00
2022-11-05T06:12:57.001Z,9.00
2022-11-05T06:17:55.158Z,9.30
2022-11-05T06:22:59.316Z,9.00
2022-11-05T06:27:57.458Z,9.00
2022-11-05T06:32:55.601Z,9.00
2022-11-05T06:37:53.704Z,9.00
2022-11-05T06:42:55.162Z,9.00
2022-11-05T06:47:57.073Z,9.10
2022-11-05T06:52:56.550Z,8.90
2022-11-05T06:57:56.337Z,8.90
2022-11-05T07:02:55.893Z,8.90
2022-11-05T07:07:54.327Z,8.90
2022-11-05T07:12:52.425Z,8.90
2022-11-05T07:17:52.176Z,9.30
2022-11-05T07:22:50.338Z,8.90
2022-11-05T07:27:48.457Z,9.00
2022-11-05T07:32:46.575Z,9.00
2022-11-05T07:37:46.926Z,9.00
2022-11-05T07:42:45.866Z,9.00
2022-11-05T07:47:48.778Z,9.10
2022-11-05T07:52:49.015Z,9.10
2022-11-05T07:57:49.047Z,9.10
2022-11-05T08:03:02.302Z,9.20
2022-11-05T08:08:07.688Z,9.20
2022-11-05T08:13:06.999Z,9.30
2022-11-05T08:18:07.350Z,9.30
2022-11-05T08:23:07.063Z,9.40
2022-11-05T08:28:07.491Z,9.50
2022-11-05T08:33:08.108Z,9.60
2022-11-05T08:38:09.162Z,9.60
2022-11-05T08:43:09.862Z,10.00
2022-11-05T08:48:10.641Z,9.80
2022-11-05T08:53:11.860Z,9.90
2022-11-05T08:58:15.025Z,10.00
2022-11-05T09:03:14.294Z,10.10
2022-11-05T09:08:15.408Z,10.10
2022-11-05T09:13:18.848Z,10.20
2022-11-05T09:18:19.757Z,10.30
2022-11-05T09:23:19.342Z,10.40
2022-11-05T09:28:20.152Z,10.60
2022-11-05T09:33:19.990Z,10.80
2022-11-05T09:38:19.682Z,10.80
2022-11-05T09:43:21.007Z,10.90
2022-11-05T09:48:22.537Z,11.10
2022-11-05T09:53:24.306Z,11.20
2022-11-05T09:58:29.130Z,11.30
2022-11-05T10:03:30.471Z,11.50
2022-11-05T10:08:33.543Z,11.60
2022-11-05T10:13:37.278Z,11.70
2022-11-05T10:19:42.645Z,11.90
2022-11-05T10:24:44.611Z,12.10
2022-11-05T10:29:44.420Z,12.20
2022-11-05T10:34:43.540Z,12.30
2022-11-05T10:39:43.065Z,12.60
2022-11-05T10:44:47.655Z,12.50
2022-11-05T10:49:53.345Z,12.60
2022-11-05T10:54:54.915Z,12.70
2022-11-05T10:59:53.115Z,12.90
2022-11-05T11:04:53.781Z,13.00
2022-11-05T11:09:53.875Z,13.10
2022-11-05T11:15:02.102Z,13.20
2022-11-05T11:20:35.969Z,13.20
2022-11-05T11:25:45.823Z,13.30
2022-11-05T11:30:49.992Z,13.40
2022-11-05T11:35:48.581Z,13.50
2022-11-05T11:40:48.468Z,13.60
2022-11-05T11:45:49.516Z,13.80
2022-11-05T11:50:48.931Z,13.90
2022-11-05T11:56:15.793Z,14.00
2022-11-05T12:01:52.569Z,14.10
2022-11-05T12:07:05.492Z,14.20
2022-11-05T12:12:10.941Z,14.20
2022-11-05T12:17:17.059Z,14.20
2022-11-05T12:22:27.801Z,14.30
2022-11-05T12:27:40.463Z,14.30
2022-11-05T12:32:50.252Z,14.40
2022-11-05T12:37:58.288Z,14.50
2022-11-05T12:43:11.963Z,14.50
2022-11-05T12:48:37.376Z,14.50
2022-11-05T12:53:57.627Z,14.60
2022-11-05T12:59:04.302Z,14.70
2022-11-05T13:04:08.844Z,14.80
2022-11-05T13:09:13.404Z,14.80
2022-11-05T13:14:15.873Z,14.80
2022-11-05T13:19:21.556Z,14.90
2022-11-05T13:24:24.687Z,15.00
2022-11-05T13:29:28.466Z,15.10
2022-11-05T13:34:26.839Z,15.10
2022-11-05T13:39:27.348Z,15.00
2022-11-05T13:45:01.986Z,15.10
2022-11-05T13:50:25.921Z,15.10
2022-11-05T13:55:43.652Z,15.10
2022-11-05T14:00:49.892Z,15.00
2022-11-05T14:05:55.601Z,14.90
2022-11-05T14:11:01.715Z,14.90
2022-11-05T14:16:06.762Z,14.80
2022-11-05T14:21:07.125Z,14.80
2022-11-05T14:26:17.560Z,14.70
2022-11-05T14:32:07.128Z,14.70
2022-11-05T14:37:28.095Z,14.60
2022-11-05T14:42:28.673Z,14.50
2022-11-05T14:47:31.618Z,14.40
2022-11-05T14:52:30.389Z,14.30
2022-11-05T14:58:17.314Z,14.10
2022-11-05T15:04:01.511Z,14.00
2022-11-05T15:09:20.286Z,13.90
2022-11-05T15:14:23.939Z,13.80
2022-11-05T15:19:28.125Z,13.70
2022-11-05T15:24:28.734Z,13.60
2022-11-05T15:29:30.613Z,13.60
2022-11-05T15:34:32.014Z,13.50
2022-11-05T15:39:33.725Z,13.50
2022-11-05T15:44:33.348Z,13.40
2022-11-05T15:49:32.954Z,13.30
2022-11-05T15:54:31.609Z,13.30
2022-11-05T15:59:31.319Z,13.20
2022-11-05T16:04:34.160Z,13.10
2022-11-05T16:09:34.690Z,13.10
2022-11-05T16:14:36.200Z,13.00
2022-11-05T16:19:42.508Z,13.00
2022-11-05T16:31:30.752Z,12.90
2022-11-05T16:36:33.274Z,12.80
2022-11-05T16:41:31.454Z,12.70
2022-11-05T16:46:31.162Z,12.70
2022-11-05T16:51:30.945Z,12.70
2022-11-05T16:56:29.049Z,12.70
2022-11-05T17:01:28.002Z,12.60
2022-11-05T17:06:26.156Z,12.60
2022-11-05T17:11:25.577Z,12.60
2022-11-05T17:16:23.642Z,12.50
2022-11-05T17:21:21.812Z,12.50
2022-11-05T17:26:20.091Z,12.50
2022-11-05T17:31:19.677Z,12.50
2022-11-05T17:36:18.023Z,12.40
2022-11-05T17:41:18.261Z,12.40
2022-11-05T17:46:18.777Z,12.40
2022-11-05T17:51:19.980Z,12.40
2022-11-05T17:56:29.183Z,12.40
2022-11-05T18:01:32.587Z,12.30
2022-11-05T18:06:32.168Z,12.30
2022-11-05T18:11:30.226Z,12.30
2022-11-05T18:16:28.597Z,12.30
2022-11-05T18:21:26.802Z,12.30
2022-11-05T18:26:26.470Z,12.20
2022-11-05T18:31:24.594Z,12.20
2022-11-05T18:36:24.562Z,12.10
2022-11-05T18:41:22.635Z,12.10
2022-11-05T18:46:51.370Z,12.10
2022-11-05T18:51:40.310Z,12.10
2022-11-05T18:56:39.524Z,12.10
2022-11-05T19:01:39.157Z,12.00
2022-11-05T19:06:38.430Z,12.10
2022-11-05T19:11:36.605Z,12.00
2022-11-05T19:16:34.918Z,12.00
2022-11-05T19:21:34.445Z,12.00
2022-11-05T19:26:32.749Z,12.00
2022-11-05T19:31:32.080Z,12.00
2022-11-05T19:36:31.081Z,12.00
2022-11-05T19:41:30.969Z,12.00
2022-11-05T19:46:30.067Z,12.00
2022-11-05T19:51:30.500Z,11.90
2022-11-05T19:56:32.181Z,11.90
2022-11-05T20:01:31.715Z,11.90
2022-11-05T20:06:32.267Z,12.00
2022-11-05T20:11:31.787Z,11.90
2022-11-05T20:16:36.777Z,11.90
2022-11-05T20:21:34.988Z,11.90
2022-11-05T20:26:35.082Z,11.90
2022-11-05T20:31:33.488Z,11.90
2022-11-05T20:36:31.784Z,11.90
2022-11-05T20:41:30.667Z,11.90
2022-11-05T20:46:30.180Z,11.90
2022-11-05T20:51:28.350Z,11.90
2022-11-05T20:56:29.406Z,11.90
2022-11-05T21:01:30.556Z,11.90
2022-11-05T21:06:29.083Z,11.90
2022-11-05T21:11:27.325Z,11.80
2022-11-05T21:16:25.480Z,11.80
2022-11-05T21:21:24.971Z,11.80
2022-11-05T21:26:23.201Z,11.80
2022-11-05T21:31:21.405Z,11.80
2022-11-05T21:36:19.518Z,11.80
2022-11-05T21:41:20.865Z,11.80
2022-11-05T21:46:19.187Z,11.80
2022-11-05T21:51:35.108Z,11.80
2022-11-05T21:56:52.539Z,11.80
2022-11-05T22:01:51.119Z,11.80
2022-11-05T22:06:49.326Z,11.70
2022-11-05T22:11:49.035Z,11.80
2022-11-05T22:16:47.219Z,11.80
2022-11-05T22:21:45.468Z,11.80
2022-11-05T22:26:44.991Z,11.80
2022-11-05T22:31:45.127Z,11.70
2022-11-05T22:36:43.271Z,11.70
2022-11-05T22:41:41.715Z,11.70
2022-11-05T22:46:40.025Z,11.70
2022-11-05T22:51:40.195Z,11.70
2022-11-05T22:56:40.060Z,11.70
2022-11-05T23:01:38.367Z,11.70
2022-11-05T23:06:54.192Z,11.60
2022-11-05T23:11:57.314Z,11.60
2022-11-05T23:17:27.585Z,11.60
2022-11-05T23:22:45.363Z,11.60
2022-11-05T23:27:45.999Z,11.50
2022-11-05T23:32:44.211Z,11.50
2022-11-05T23:38:00.061Z,11.50
2022-11-05T23:43:17.081Z,11.50
2022-11-05T23:48:18.301Z,11.50
2022-11-05T23:53:17.044Z,11.50
2022-11-05T23:58:17.327Z,11.50
